Time,TemperatureF,DewpointF,PressureIn,WindDirection,WindDirectionDegrees,WindSpeedMPH,WindSpeedGustMPH,Humidity,HourlyPrecipIn,Conditions,Clouds,dailyrainin,SolarRadiationWatts/m^2,SoftwareType,DateUTC
2013-03-20 00:00:00,36.9,31.9,29.65,WNW,296,2.0,9.0,82,0.00,,,0.97,0,WeatherCatV1.14B232,2013-03-20 04:00:00,
2013-03-20 00:05:00,36.8,31.8,29.66,WNW,293,4.0,7.0,82,0.00,,,0.00,0,WeatherCatV1.14B232,2013-03-20 04:05:00,
2013-03-20 00:07:00,36.8,31.8,29.66,WNW,293,4.0,4.0,82,0.00,,,0.00,0,WeatherCatV1.14B232,2013-03-20 04:07:00,
2013-03-20 00:10:00,36.6,30.7,29.66,WNW,299,4.0,6.0,79,0.00,,,0.00,0,WeatherCatV1.14B232,2013-03-20 04:10:00,
2013-03-20 00:15:00,36.5,29.7,29.66,WNW,289,5.0,7.0,76,0.00,,,0.00,0,WeatherCatV1.14B232,2013-03-20 04:15:00,
2013-03-20 00:16:00,36.5,29.3,29.66,NW,304,0.0,9.0,75,0.00,,,0.00,0,WeatherCatV1.14B232,2013-03-20 04:16:00,
2013-03-20 00:21:00,36.3,28.8,29.65,NW,315,8.0,9.0,74,0.00,,,0.00,0,WeatherCatV1.14B232,2013-03-20 04:21:00,
2013-03-20 00:26:00,36.1,28.3,29.66,WNW,286,7.0,10.0,73,0.00,,,0.00,0,WeatherCatV1.14B232,2013-03-20 04:26:00,
2013-03-20 00:31:00,35.9,27.8,29.66,West,275,5.0,6.0,72,0.00,,,0.00,0,WeatherCatV1.14B232,2013-03-20 04:31:00,
2013-03-20 00:36:00,35.6,27.8,29.66,WNW,296,8.0,10.0,73,0.00,,,0.00,0,WeatherCatV1.14B232,2013-03-20 04:36:00,
2013-03-20 00:41:00,35.5,27.7,29.66,WNW,300,3.0,8.0,73,0.00,,,0.00,0,WeatherCatV1.14B232,2013-03-20 04:41:00,
2013-03-20 00:46:00,35.4,27.3,29.66,NW,308,4.0,8.0,72,0.00,,,0.00,0,WeatherCatV1.14B232,2013-03-20 04:46:00,
2013-03-20 00:51:00,35.2,27.1,29.66,West,271,1.0,4.0,72,0.00,,,0.00,0,WeatherCatV1.14B232,2013-03-20 04:51:00,
2013-03-20 00:56:00,35.0,27.2,29.66,NW,307,3.0,5.0,73,0.00,,,0.00,0,WeatherCatV1.14B232,2013-03-20 04:56:00,
2013-03-20 01:01:00,34.9,27.1,29.67,WNW,303,3.0,6.0,73,0.00,,,0.00,0,WeatherCatV1.14B232,2013-03-20 05:01:00,
2013-03-20 01:06:00,34.8,26.7,29.67,WNW,288,3.0,5.0,72,0.00,,,0.00,0,WeatherCatV1.14B232,2013-03-20 05:06:00,
2013-03-20 01:11:00,34.8,26.7,29.67,WNW,301,0.0,5.0,72,0.00,,,0.00,0,WeatherCatV1.14B232,2013-03-20 05:11:00,
2013-03-20 01:16:00,34.6,26.9,29.67,WSW,258,6.0,6.0,73,0.00,,,0.00,0,WeatherCatV1.14B232,2013-03-20 05:16:00,
2013-03-20 01:21:00,34.6,26.5,29.67,NW,304,3.0,5.0,72,0.00,,,0.00,0,WeatherCatV1.14B232,2013-03-20 05:21:00,
2013-03-20 01:26:00,34.5,26.8,29.67,WNW,301,3.0,5.0,73,0.00,,,0.00,0,WeatherCatV1.14B232,2013-03-20 05:26:00,
2013-03-20 01:31:00,34.4,26.3,29.68,WNW,292,5.0,6.0,72,0.00,,,0.00,0,WeatherCatV1.14B232,2013-03-20 05:31:00,
2013-03-20 01:36:00,34.4,26.3,29.68,West,275,2.0,7.0,72,0.00,,,0.00,0,WeatherCatV1.14B232,2013-03-20 05:36:00,
2013-03-20 01:41:00,34.4,25.6,29.68,WNW,283,6.0,8.0,70,0.00,,,0.00,0,WeatherCatV1.14B232,2013-03-20 05:41:00,
2013-03-20 01:46:00,34.5,26.1,29.68,WNW,292,2.0,7.0,71,0.00,,,0.00,0,WeatherCatV1.14B232,2013-03-20 05:46:00,
2013-03-20 01:51:00,34.5,26.1,29.68,NW,312,4.0,4.0,71,0.00,,,0.00,0,WeatherCatV1.14B232,2013-03-20 05:51:00,
2013-03-20 01:56:00,34.6,26.2,29.68,NW,311,3.0,5.0,71,0.00,,,0.00,0,WeatherCatV1.14B232,2013-03-20 05:56:00,
2013-03-20 02:01:00,34.6,26.5,29.68,WNW,300,5.0,5.0,72,0.00,,,0.00,0,WeatherCatV1.14B232,2013-03-20 06:01:00,
2013-03-20 02:06:00,34.5,26.4,29.68,WNW,295,4.0,4.0,72,0.00,,,0.00,0,WeatherCatV1.14B232,2013-03-20 06:06:00,
2013-03-20 02:11:00,34.4,26.3,29.68,NW,308,0.0,5.0,72,0.00,,,0.00,0,WeatherCatV1.14B232,2013-03-20 06:11:00,
2013-03-20 02:16:00,34.4,25.6,29.68,NNW,327,7.0,8.0,70,0.00,,,0.00,0,WeatherCatV1.14B232,2013-03-20 06:16:00,
2013-03-20 02:21:00,34.4,25.6,29.68,WNW,290,5.0,7.0,70,0.00,,,0.00,0,WeatherCatV1.14B232,2013-03-20 06:21:00,
2013-03-20 02:26:00,34.3,25.5,29.69,WNW,290,4.0,5.0,70,0.00,,,0.00,0,WeatherCatV1.14B232,2013-03-20 06:26:00,
2013-03-20 02:31:00,34.1,25.4,29.69,WNW,302,3.0,6.0,70,0.00,,,0.00,0,WeatherCatV1.14B232,2013-03-20 06:31:00,
2013-03-20 02:36:00,34.0,25.3,29.69,NW,315,2.0,4.0,70,0.00,,,0.00,0,WeatherCatV1.14B232,2013-03-20 06:36:00,
2013-03-20 02:41:00,33.8,25.1,29.69,NW,314,0.0,5.0,70,0.00,,,0.00,0,WeatherCatV1.14B232,2013-03-20 06:41:00,
2013-03-20 02:46:00,33.7,24.6,29.69,West,273,1.0,5.0,69,0.00,,,0.00,0,WeatherCatV1.14B232,2013-03-20 06:46:00,
2013-03-20 02:51:00,33.5,24.8,29.69,WNW,293,4.0,5.0,70,0.00,,,0.00,0,WeatherCatV1.14B232,2013-03-20 06:51:00,
2013-03-20 02:56:00,33.5,24.8,29.69,WNW,300,0.0,4.0,70,0.00,,,0.00,0,WeatherCatV1.14B232,2013-03-20 06:56:00,
2013-03-20 03:01:00,33.4,24.7,29.69,WSW,257,2.0,4.0,70,0.00,,,0.00,0,WeatherCatV1.14B232,2013-03-20 07:01:00,
2013-03-20 03:06:00,33.5,24.1,29.70,West,271,2.0,6.0,68,0.00,,,0.00,0,WeatherCatV1.14B232,2013-03-20 07:06:00,
2013-03-20 03:11:00,33.6,24.2,29.70,NW,309,4.0,5.0,68,0.00,,,0.00,0,WeatherCatV1.14B232,2013-03-20 07:11:00,
2013-03-20 03:16:00,33.6,24.2,29.70,WNW,302,3.0,5.0,68,0.00,,,0.00,0,WeatherCatV1.14B232,2013-03-20 07:16:00,
2013-03-20 03:21:00,33.5,23.7,29.70,WSW,254,4.0,7.0,67,0.00,,,0.00,0,WeatherCatV1.14B232,2013-03-20 07:21:00,
2013-03-20 03:26:00,33.5,23.4,29.70,NW,309,1.0,7.0,66,0.00,,,0.00,0,WeatherCatV1.14B232,2013-03-20 07:26:00,
2013-03-20 03:31:00,33.4,23.3,29.70,WNW,287,6.0,6.0,66,0.00,,,0.00,0,WeatherCatV1.14B232,2013-03-20 07:31:00,
2013-03-20 03:36:00,33.4,22.9,29.70,West,259,3.0,7.0,65,0.00,,,0.00,0,WeatherCatV1.14B232,2013-03-20 07:36:00,
2013-03-20 03:41:00,33.3,22.8,29.70,WSW,257,3.0,7.0,65,0.00,,,0.00,0,WeatherCatV1.14B232,2013-03-20 07:41:00,
2013-03-20 03:46:00,33.1,23.0,29.70,West,281,3.0,7.0,66,0.00,,,0.00,0,WeatherCatV1.14B232,2013-03-20 07:46:00,
2013-03-20 03:51:00,33.1,22.6,29.70,West,259,1.0,5.0,65,0.00,,,0.00,0,WeatherCatV1.14B232,2013-03-20 07:51:00,
2013-03-20 03:56:00,33.1,22.6,29.70,West,281,3.0,5.0,65,0.00,,,0.00,0,WeatherCatV1.14B232,2013-03-20 07:56:00,
2013-03-20 04:01:00,33.0,22.5,29.70,WNW,282,2.0,4.0,65,0.00,,,0.00,0,WeatherCatV1.14B232,2013-03-20 08:01:00,
2013-03-20 04:06:00,32.9,22.4,29.70,NW,306,4.0,6.0,65,0.00,,,0.00,0,WeatherCatV1.14B232,2013-03-20 08:06:00,
2013-03-20 04:11:00,32.8,22.0,29.70,WSW,254,3.0,5.0,64,0.00,,,0.00,0,WeatherCatV1.14B232,2013-03-20 08:11:00,
2013-03-20 04:16:00,32.8,22.3,29.70,West,261,2.0,3.0,65,0.00,,,0.00,0,WeatherCatV1.14B232,2013-03-20 08:16:00,
2013-03-20 04:21:00,32.6,22.2,29.70,WSW,251,2.0,3.0,65,0.00,,,0.00,0,WeatherCatV1.14B232,2013-03-20 08:21:00,
2013-03-20 04:26:00,32.3,21.9,29.70,West,269,1.0,5.0,65,0.00,,,0.00,0,WeatherCatV1.14B232,2013-03-20 08:26:00,
2013-03-20 04:31:00,32.4,22.0,29.70,West,262,1.0,3.0,65,0.00,,,0.00,0,WeatherCatV1.14B232,2013-03-20 08:31:00,
2013-03-20 04:36:00,32.2,21.8,29.70,WSW,258,4.0,4.0,65,0.00,,,0.00,0,WeatherCatV1.14B232,2013-03-20 08:36:00,
2013-03-20 04:41:00,32.1,22.0,29.70,WSW,255,4.0,5.0,66,0.00,,,0.00,0,WeatherCatV1.14B232,2013-03-20 08:41:00,
2013-03-20 04:46:00,32.4,21.6,29.70,West,272,2.0,5.0,64,0.00,,,0.00,0,WeatherCatV1.14B232,2013-03-20 08:46:00,
2013-03-20 04:51:00,32.4,22.3,29.70,West,265,4.0,4.0,66,0.00,,,0.00,0,WeatherCatV1.14B232,2013-03-20 08:51:00,
2013-03-20 04:56:00,32.4,22.3,29.71,WSW,249,8.0,9.0,66,0.00,,,0.00,0,WeatherCatV1.14B232,2013-03-20 08:56:00,
2013-03-20 05:01:00,32.4,22.0,29.71,West,261,6.0,7.0,65,0.00,,,0.00,0,WeatherCatV1.14B232,2013-03-20 09:01:00,
2013-03-20 05:06:00,32.6,22.2,29.71,WSW,251,3.0,4.0,65,0.00,,,0.00,0,WeatherCatV1.14B232,2013-03-20 09:06:00,
2013-03-20 05:11:00,32.4,21.6,29.71,WSW,252,8.0,9.0,64,0.00,,,0.00,0,WeatherCatV1.14B232,2013-03-20 09:11:00,
2013-03-20 05:16:00,32.5,21.7,29.71,WSW,240,6.0,8.0,64,0.00,,,0.00,0,WeatherCatV1.14B232,2013-03-20 09:16:00,
2013-03-20 05:21:00,32.5,21.7,29.71,WSW,258,6.0,6.0,64,0.00,,,0.00,0,WeatherCatV1.14B232,2013-03-20 09:21:00,
2013-03-20 05:26:00,32.5,21.7,29.71,WSW,258,4.0,8.0,64,0.00,,,0.00,0,WeatherCatV1.14B232,2013-03-20 09:26:00,
2013-03-20 05:31:00,32.5,21.7,29.71,West,274,3.0,7.0,64,0.00,,,0.00,0,WeatherCatV1.14B232,2013-03-20 09:31:00,
2013-03-20 05:36:00,32.3,21.9,29.71,WSW,253,4.0,5.0,65,0.00,,,0.00,0,WeatherCatV1.14B232,2013-03-20 09:36:00,
2013-03-20 05:41:00,32.3,21.9,29.72,WSW,258,3.0,7.0,65,0.00,,,0.00,0,WeatherCatV1.14B232,2013-03-20 09:41:00,
2013-03-20 05:46:00,32.3,21.5,29.71,WSW,254,5.0,7.0,64,0.00,,,0.00,0,WeatherCatV1.14B232,2013-03-20 09:46:00,
2013-03-20 05:51:00,32.4,21.6,29.72,West,272,3.0,6.0,64,0.00,,,0.00,0,WeatherCatV1.14B232,2013-03-20 09:51:00,
2013-03-20 05:56:00,32.4,21.6,29.72,WSW,254,4.0,6.0,64,0.00,,,0.00,0,WeatherCatV1.14B232,2013-03-20 09:56:00,
2013-03-20 06:01:00,32.3,21.5,29.72,WNW,291,5.0,11.0,64,0.00,,,0.00,0,WeatherCatV1.14B232,2013-03-20 10:01:00,
2013-03-20 06:06:00,32.4,21.6,29.72,West,259,3.0,5.0,64,0.00,,,0.00,0,WeatherCatV1.14B232,2013-03-20 10:06:00,
2013-03-20 06:11:00,32.3,21.5,29.72,West,277,4.0,7.0,64,0.00,,,0.00,0,WeatherCatV1.14B232,2013-03-20 10:11:00,
2013-03-20 06:16:00,32.3,21.5,29.72,West,268,4.0,10.0,64,0.00,,,0.00,0,WeatherCatV1.14B232,2013-03-20 10:16:00,
2013-03-20 06:21:00,32.3,21.5,29.72,West,262,4.0,6.0,64,0.00,,,0.00,0,WeatherCatV1.14B232,2013-03-20 10:21:00,
2013-03-20 06:26:00,32.2,21.4,29.72,WSW,254,4.0,6.0,64,0.00,,,0.00,0,WeatherCatV1.14B232,2013-03-20 10:26:00,
2013-03-20 06:31:00,32.1,21.3,29.72,West,261,5.0,7.0,64,0.00,,,0.00,0,WeatherCatV1.14B232,2013-03-20 10:31:00,
2013-03-20 06:36:00,32.1,21.3,29.72,West,262,7.0,9.0,64,0.00,,,0.00,0,WeatherCatV1.14B232,2013-03-20 10:36:00,
2013-03-20 06:41:00,32.3,21.1,29.73,West,261,4.0,6.0,63,0.00,,,0.00,0,WeatherCatV1.14B232,2013-03-20 10:41:00,
2013-03-20 06:46:00,32.4,21.2,29.73,WNW,295,8.0,11.0,63,0.00,,,0.00,0,WeatherCatV1.14B232,2013-03-20 10:46:00,
2013-03-20 06:51:00,32.5,21.3,29.73,WNW,282,5.0,10.0,63,0.00,,,0.00,0,WeatherCatV1.14B232,2013-03-20 10:51:00,
2013-03-20 06:56:00,32.6,21.0,29.73,WNW,296,4.0,7.0,62,0.00,,,0.00,0,WeatherCatV1.14B232,2013-03-20 10:56:00,
2013-03-20 07:01:00,32.6,21.0,29.73,West,266,5.0,6.0,62,0.00,,,0.00,5,WeatherCatV1.14B232,2013-03-20 11:01:00,
2013-03-20 07:06:00,32.7,21.1,29.72,WNW,299,7.0,8.0,62,0.00,,,0.00,7,WeatherCatV1.14B232,2013-03-20 11:06:00,
2013-03-20 07:11:00,32.7,21.1,29.72,West,273,6.0,8.0,62,0.00,,,0.00,9,WeatherCatV1.14B232,2013-03-20 11:11:00,
2013-03-20 07:16:00,32.8,20.9,29.73,WNW,286,5.0,6.0,61,0.00,,,0.00,11,WeatherCatV1.14B232,2013-03-20 11:16:00,
2013-03-20 07:21:00,32.8,21.2,29.73,West,277,5.0,8.0,62,0.00,,,0.00,23,WeatherCatV1.14B232,2013-03-20 11:21:00,
2013-03-20 07:26:00,32.9,20.6,29.72,WNW,297,8.0,8.0,60,0.00,,,0.00,18,WeatherCatV1.14B232,2013-03-20 11:26:00,
2013-03-20 07:31:00,32.9,20.9,29.72,West,270,5.0,6.0,61,0.00,,,0.00,19,WeatherCatV1.14B232,2013-03-20 11:31:00,
2013-03-20 07:36:00,32.9,20.9,29.72,WSW,253,3.0,5.0,61,0.00,,,0.00,23,WeatherCatV1.14B232,2013-03-20 11:36:00,
2013-03-20 07:41:00,32.9,20.9,29.73,NNW,329,4.0,7.0,61,0.00,,,0.00,32,WeatherCatV1.14B232,2013-03-20 11:41:00,
2013-03-20 07:46:00,33.1,21.1,29.73,West,259,5.0,6.0,61,0.00,,,0.00,46,WeatherCatV1.14B232,2013-03-20 11:46:00,
2013-03-20 07:51:00,33.3,21.3,29.73,WSW,254,6.0,6.0,61,0.00,,,0.00,32,WeatherCatV1.14B232,2013-03-20 11:51:00,
2013-03-20 07:56:00,33.3,21.3,29.73,West,266,2.0,7.0,61,0.00,,,0.00,70,WeatherCatV1.14B232,2013-03-20 11:56:00,
2013-03-20 08:01:00,33.4,21.4,29.72,West,274,6.0,6.0,61,0.00,,,0.00,35,WeatherCatV1.14B232,2013-03-20 12:01:00,
2013-03-20 08:06:00,33.6,21.2,29.73,West,275,8.0,10.0,60,0.00,,,0.00,33,WeatherCatV1.14B232,2013-03-20 12:06:00,
2013-03-20 08:11:00,33.6,21.2,29.72,West,269,4.0,7.0,60,0.00,,,0.00,46,WeatherCatV1.14B232,2013-03-20 12:11:00,
2013-03-20 08:16:00,33.7,21.3,29.72,WSW,251,5.0,5.0,60,0.00,,,0.00,158,WeatherCatV1.14B232,2013-03-20 12:16:00,
2013-03-20 08:21:00,33.9,21.5,29.72,WNW,285,4.0,8.0,60,0.00,,,0.00,47,WeatherCatV1.14B232,2013-03-20 12:21:00,
2013-03-20 08:26:00,34.1,21.3,29.72,SW,236,6.0,9.0,59,0.00,,,0.00,148,WeatherCatV1.14B232,2013-03-20 12:26:00,
2013-03-20 08:31:00,34.2,21.0,29.72,West,261,6.0,10.0,58,0.00,,,0.00,178,WeatherCatV1.14B232,2013-03-20 12:31:00,
2013-03-20 08:36:00,34.3,21.1,29.72,WSW,246,4.0,8.0,58,0.00,,,0.00,162,WeatherCatV1.14B232,2013-03-20 12:36:00,
2013-03-20 08:41:00,34.6,21.8,29.72,West,267,4.0,6.0,59,0.00,,,0.00,192,WeatherCatV1.14B232,2013-03-20 12:41:00,
2013-03-20 08:46:00,34.8,21.5,29.72,WNW,295,6.0,6.0,58,0.00,,,0.00,207,WeatherCatV1.14B232,2013-03-20 12:46:00,
2013-03-20 08:51:00,35.0,21.3,29.72,WSW,238,4.0,7.0,57,0.00,,,0.00,230,WeatherCatV1.14B232,2013-03-20 12:51:00,
2013-03-20 08:56:00,35.1,21.4,29.72,NW,307,6.0,7.0,57,0.00,,,0.00,116,WeatherCatV1.14B232,2013-03-20 12:56:00,
2013-03-20 09:01:00,35.2,21.5,29.72,WSW,240,5.0,9.0,57,0.00,,,0.00,155,WeatherCatV1.14B232,2013-03-20 13:01:00,
2013-03-20 09:06:00,35.5,21.4,29.72,West,261,7.0,8.0,56,0.00,,,0.00,155,WeatherCatV1.14B232,2013-03-20 13:06:00,
2013-03-20 09:11:00,35.5,21.4,29.72,WSW,256,6.0,6.0,56,0.00,,,0.00,107,WeatherCatV1.14B232,2013-03-20 13:11:00,
2013-03-20 09:16:00,35.6,20.6,29.72,West,263,8.0,11.0,54,0.00,,,0.00,88,WeatherCatV1.14B232,2013-03-20 13:16:00,
2013-03-20 09:21:00,35.5,20.5,29.72,WSW,252,8.0,9.0,54,0.00,,,0.00,162,WeatherCatV1.14B232,2013-03-20 13:21:00,
2013-03-20 09:26:00,35.6,20.6,29.72,WSW,248,5.0,9.0,54,0.00,,,0.00,250,WeatherCatV1.14B232,2013-03-20 13:26:00,
2013-03-20 09:31:00,35.9,20.5,29.71,WSW,244,7.0,8.0,53,0.00,,,0.00,299,WeatherCatV1.14B232,2013-03-20 13:31:00,
2013-03-20 09:36:00,36.4,20.9,29.72,WNW,288,5.0,11.0,53,0.00,,,0.00,144,WeatherCatV1.14B232,2013-03-20 13:36:00,
2013-03-20 09:41:00,36.4,20.5,29.72,WSW,257,4.0,8.0,52,0.00,,,0.00,353,WeatherCatV1.14B232,2013-03-20 13:41:00,
2013-03-20 09:46:00,36.7,21.6,29.72,WSW,250,4.0,11.0,54,0.00,,,0.00,381,WeatherCatV1.14B232,2013-03-20 13:46:00,
2013-03-20 09:51:00,36.4,20.5,29.72,NW,313,4.0,13.0,52,0.00,,,0.00,183,WeatherCatV1.14B232,2013-03-20 13:51:00,
2013-03-20 09:56:00,36.4,20.5,29.72,NNW,331,6.0,10.0,52,0.00,,,0.00,149,WeatherCatV1.14B232,2013-03-20 13:56:00,
2013-03-20 10:01:00,36.4,20.0,29.72,WSW,257,8.0,9.0,51,0.00,,,0.00,482,WeatherCatV1.14B232,2013-03-20 14:01:00,
2013-03-20 10:06:00,36.6,19.7,29.72,WNW,302,6.0,10.0,50,0.00,,,0.00,232,WeatherCatV1.14B232,2013-03-20 14:06:00,
2013-03-20 10:11:00,36.7,19.8,29.72,West,269,7.0,8.0,50,0.00,,,0.00,174,WeatherCatV1.14B232,2013-03-20 14:11:00,
2013-03-20 10:16:00,37.0,19.6,29.72,West,275,5.0,14.0,49,0.00,,,0.00,501,WeatherCatV1.14B232,2013-03-20 14:16:00,
2013-03-20 10:21:00,37.6,19.2,29.72,WNW,287,6.0,13.0,47,0.00,,,0.00,584,WeatherCatV1.14B232,2013-03-20 14:21:00,
2013-03-20 10:26:00,37.6,19.7,29.72,WNW,286,8.0,13.0,48,0.00,,,0.00,645,WeatherCatV1.14B232,2013-03-20 14:26:00,
2013-03-20 10:31:00,37.8,19.9,29.72,NW,306,13.0,16.0,48,0.00,,,0.00,638,WeatherCatV1.14B232,2013-03-20 14:31:00,
2013-03-20 10:36:00,37.7,19.8,29.72,WNW,295,4.0,11.0,48,0.00,,,0.00,664,WeatherCatV1.14B232,2013-03-20 14:36:00,
2013-03-20 10:41:00,38.6,20.6,29.72,West,259,7.0,10.0,48,0.00,,,0.00,689,WeatherCatV1.14B232,2013-03-20 14:41:00,
2013-03-20 10:46:00,38.7,19.7,29.72,West,260,6.0,10.0,46,0.00,,,0.00,657,WeatherCatV1.14B232,2013-03-20 14:46:00,
2013-03-20 10:51:00,38.9,19.4,29.72,WNW,301,10.0,13.0,45,0.00,,,0.00,671,WeatherCatV1.14B232,2013-03-20 14:51:00,
2013-03-20 10:56:00,38.7,19.2,29.72,West,279,6.0,11.0,45,0.00,,,0.00,686,WeatherCatV1.14B232,2013-03-20 14:56:00,
2013-03-20 11:02:00,39.0,20.0,29.72,WSW,257,5.0,8.0,46,0.00,,,0.00,691,WeatherCatV1.14B232,2013-03-20 15:02:00,
2013-03-20 11:06:00,39.3,20.3,29.72,WNW,288,5.0,9.0,46,0.00,,,0.00,731,WeatherCatV1.14B232,2013-03-20 15:06:00,
2013-03-20 11:11:00,38.4,20.4,29.72,WNW,288,1.0,9.0,48,0.00,,,0.00,142,WeatherCatV1.14B232,2013-03-20 15:11:00,
2013-03-20 11:17:00,39.1,21.1,29.72,West,261,4.0,7.0,48,0.00,,,0.00,722,WeatherCatV1.14B232,2013-03-20 15:17:00,
2013-03-20 11:22:00,39.3,20.3,29.72,West,271,8.0,10.0,46,0.00,,,0.00,788,WeatherCatV1.14B232,2013-03-20 15:22:00,
2013-03-20 11:27:00,39.0,20.5,29.72,NW,313,12.0,12.0,47,0.00,,,0.00,754,WeatherCatV1.14B232,2013-03-20 15:27:00,
2013-03-20 11:32:00,39.6,21.5,29.72,WSW,253,5.0,9.0,48,0.00,,,0.00,793,WeatherCatV1.14B232,2013-03-20 15:32:00,
2013-03-20 11:37:00,40.0,21.9,29.72,West,260,5.0,10.0,48,0.00,,,0.00,800,WeatherCatV1.14B232,2013-03-20 15:37:00,
2013-03-20 11:42:00,40.0,21.9,29.72,West,278,8.0,14.0,48,0.00,,,0.00,770,WeatherCatV1.14B232,2013-03-20 15:42:00,
2013-03-20 11:47:00,39.5,21.0,29.72,WSW,254,9.0,11.0,47,0.00,,,0.00,768,WeatherCatV1.14B232,2013-03-20 15:47:00,
2013-03-20 11:52:00,39.8,20.7,29.72,NW,308,5.0,10.0,46,0.00,,,0.00,775,WeatherCatV1.14B232,2013-03-20 15:52:00,
2013-03-20 11:57:00,40.0,20.9,29.71,West,259,8.0,12.0,46,0.00,,,0.00,780,WeatherCatV1.14B232,2013-03-20 15:57:00,
2013-03-20 12:02:00,40.4,22.3,29.71,NW,308,6.0,8.0,48,0.00,,,0.00,800,WeatherCatV1.14B232,2013-03-20 16:02:00,
2013-03-20 12:07:00,40.3,21.7,29.71,WNW,302,6.0,8.0,47,0.00,,,0.00,847,WeatherCatV1.14B232,2013-03-20 16:07:00,
2013-03-20 12:12:00,40.5,21.9,29.71,WNW,294,2.0,10.0,47,0.00,,,0.00,810,WeatherCatV1.14B232,2013-03-20 16:12:00,
2013-03-20 12:17:00,41.4,23.2,29.71,West,261,6.0,6.0,48,0.00,,,0.00,800,WeatherCatV1.14B232,2013-03-20 16:17:00,
2013-03-20 12:22:00,41.8,22.6,29.70,NW,311,3.0,8.0,46,0.00,,,0.00,833,WeatherCatV1.14B232,2013-03-20 16:22:00,
2013-03-20 12:27:00,41.1,22.4,29.70,WNW,302,5.0,9.0,47,0.00,,,0.00,826,WeatherCatV1.14B232,2013-03-20 16:27:00,
2013-03-20 12:32:00,40.4,22.3,29.70,WNW,299,5.0,8.0,48,0.00,,,0.00,826,WeatherCatV1.14B232,2013-03-20 16:32:00,
2013-03-20 12:37:00,41.1,22.9,29.70,West,279,4.0,9.0,48,0.00,,,0.00,816,WeatherCatV1.14B232,2013-03-20 16:37:00,
2013-03-20 12:42:00,42.7,25.4,29.70,WNW,291,5.0,6.0,50,0.00,,,0.00,846,WeatherCatV1.14B232,2013-03-20 16:42:00,
2013-03-20 12:47:00,42.4,23.1,29.70,West,280,8.0,9.0,46,0.00,,,0.00,828,WeatherCatV1.14B232,2013-03-20 16:47:00,
2013-03-20 12:52:00,42.2,22.4,29.69,WSW,257,3.0,7.0,45,0.00,,,0.00,823,WeatherCatV1.14B232,2013-03-20 16:52:00,
2013-03-20 12:57:00,42.6,22.2,29.70,WSW,246,6.0,8.0,44,0.00,,,0.00,842,WeatherCatV1.14B232,2013-03-20 16:57:00,
2013-03-20 13:02:00,43.2,22.8,29.70,West,261,5.0,6.0,44,0.00,,,0.00,835,WeatherCatV1.14B232,2013-03-20 17:02:00,
2013-03-20 13:07:00,42.9,23.0,29.69,West,261,5.0,9.0,45,0.00,,,0.00,835,WeatherCatV1.14B232,2013-03-20 17:07:00,
2013-03-20 13:12:00,43.2,22.2,29.69,West,275,5.0,11.0,43,0.00,,,0.00,830,WeatherCatV1.14B232,2013-03-20 17:12:00,
2013-03-20 13:17:00,43.4,23.0,29.69,West,259,4.0,9.0,44,0.00,,,0.00,823,WeatherCatV1.14B232,2013-03-20 17:17:00,
2013-03-20 13:22:00,43.5,22.5,29.69,West,265,7.0,8.0,43,0.00,,,0.00,824,WeatherCatV1.14B232,2013-03-20 17:22:00,
2013-03-20 13:27:00,42.9,22.0,29.69,West,275,7.0,10.0,43,0.00,,,0.00,816,WeatherCatV1.14B232,2013-03-20 17:27:00,
2013-03-20 13:32:00,43.1,22.7,29.69,WSW,243,6.0,8.0,44,0.00,,,0.00,824,WeatherCatV1.14B232,2013-03-20 17:32:00,
2013-03-20 13:37:00,43.7,23.2,29.68,West,261,10.0,10.0,44,0.00,,,0.00,817,WeatherCatV1.14B232,2013-03-20 17:37:00,
2013-03-20 13:42:00,43.6,23.1,29.68,WSW,244,5.0,7.0,44,0.00,,,0.00,810,WeatherCatV1.14B232,2013-03-20 17:42:00,
2013-03-20 13:47:00,44.0,22.4,29.68,West,278,5.0,6.0,42,0.00,,,0.00,805,WeatherCatV1.14B232,2013-03-20 17:47:00,
2013-03-20 13:52:00,44.4,22.8,29.68,WNW,296,3.0,7.0,42,0.00,,,0.00,802,WeatherCatV1.14B232,2013-03-20 17:52:00,
2013-03-20 13:57:00,44.8,23.1,29.68,WNW,300,5.0,8.0,42,0.00,,,0.00,803,WeatherCatV1.14B232,2013-03-20 17:57:00,
2013-03-20 14:02:00,44.0,21.8,29.67,NW,314,3.0,9.0,41,0.00,,,0.00,789,WeatherCatV1.14B232,2013-03-20 18:02:00,
2013-03-20 14:07:00,44.3,23.2,29.67,WNW,295,3.0,7.0,43,0.00,,,0.00,791,WeatherCatV1.14B232,2013-03-20 18:07:00,
2013-03-20 14:12:00,44.1,20.1,29.67,WSW,248,5.0,9.0,38,0.00,,,0.00,788,WeatherCatV1.14B232,2013-03-20 18:12:00,
2013-03-20 14:17:00,43.7,19.8,29.66,WNW,295,5.0,12.0,38,0.00,,,0.00,775,WeatherCatV1.14B232,2013-03-20 18:17:00,
2013-03-20 14:22:00,44.0,20.7,29.66,WNW,290,2.0,10.0,39,0.00,,,0.00,773,WeatherCatV1.14B232,2013-03-20 18:22:00,
2013-03-20 14:27:00,44.2,22.0,29.66,WSW,240,4.0,8.0,41,0.00,,,0.00,763,WeatherCatV1.14B232,2013-03-20 18:27:00,
2013-03-20 14:32:00,44.0,20.7,29.65,West,273,6.0,9.0,39,0.00,,,0.00,751,WeatherCatV1.14B232,2013-03-20 18:32:00,
2013-03-20 14:37:00,44.0,20.7,29.65,WSW,257,7.0,12.0,39,0.00,,,0.00,751,WeatherCatV1.14B232,2013-03-20 18:37:00,
2013-03-20 14:42:00,44.3,21.5,29.65,West,263,2.0,8.0,40,0.00,,,0.00,744,WeatherCatV1.14B232,2013-03-20 18:42:00,
2013-03-20 14:47:00,44.4,22.2,29.65,West,263,4.0,4.0,41,0.00,,,0.00,740,WeatherCatV1.14B232,2013-03-20 18:47:00,
2013-03-20 14:52:00,44.8,20.8,29.65,WNW,289,5.0,8.0,38,0.00,,,0.00,733,WeatherCatV1.14B232,2013-03-20 18:52:00,
2013-03-20 14:57:00,44.5,19.9,29.64,West,263,8.0,9.0,37,0.00,,,0.00,649,WeatherCatV1.14B232,2013-03-20 18:57:00,
2013-03-20 15:02:00,43.1,19.8,29.64,West,277,3.0,8.0,39,0.00,,,0.00,102,WeatherCatV1.14B232,2013-03-20 19:02:00,
2013-03-20 15:07:00,43.8,21.1,29.64,WNW,298,5.0,8.0,40,0.00,,,0.00,642,WeatherCatV1.14B232,2013-03-20 19:07:00,
2013-03-20 15:12:00,43.7,20.4,29.64,WSW,244,6.0,6.0,39,0.00,,,0.00,125,WeatherCatV1.14B232,2013-03-20 19:12:00,
2013-03-20 15:17:00,43.9,20.0,29.64,NW,315,4.0,8.0,38,0.00,,,0.00,109,WeatherCatV1.14B232,2013-03-20 19:17:00,
2013-03-20 15:22:00,43.9,21.2,29.64,WNW,290,3.0,5.0,40,0.00,,,0.00,139,WeatherCatV1.14B232,2013-03-20 19:22:00,
2013-03-20 15:27:00,44.0,21.2,29.64,WNW,286,6.0,7.0,40,0.00,,,0.00,174,WeatherCatV1.14B232,2013-03-20 19:27:00,
2013-03-20 15:32:00,43.6,19.7,29.64,WNW,284,6.0,8.0,38,0.00,,,0.00,167,WeatherCatV1.14B232,2013-03-20 19:32:00,
2013-03-20 15:37:00,43.2,19.9,29.64,WSW,255,8.0,9.0,39,0.00,,,0.00,156,WeatherCatV1.14B232,2013-03-20 19:37:00,
2013-03-20 15:42:00,43.2,19.9,29.64,West,265,8.0,13.0,39,0.00,,,0.00,172,WeatherCatV1.14B232,2013-03-20 19:42:00,
2013-03-20 15:47:00,43.4,20.7,29.64,WSW,257,3.0,7.0,40,0.00,,,0.00,135,WeatherCatV1.14B232,2013-03-20 19:47:00,
2013-03-20 15:52:00,43.6,20.9,29.64,WNW,294,6.0,11.0,40,0.00,,,0.00,114,WeatherCatV1.14B232,2013-03-20 19:52:00,
2013-03-20 15:57:00,43.4,21.3,29.64,West,277,4.0,5.0,41,0.00,,,0.00,130,WeatherCatV1.14B232,2013-03-20 19:57:00,
2013-03-20 16:02:00,43.5,20.8,29.64,West,261,4.0,6.0,40,0.00,,,0.00,125,WeatherCatV1.14B232,2013-03-20 20:02:00,
2013-03-20 16:07:00,43.5,20.8,29.64,West,269,5.0,6.0,40,0.00,,,0.00,160,WeatherCatV1.14B232,2013-03-20 20:07:00,
2013-03-20 16:12:00,44.1,21.3,29.64,West,277,5.0,11.0,40,0.00,,,0.00,218,WeatherCatV1.14B232,2013-03-20 20:12:00,
2013-03-20 16:17:00,44.2,20.2,29.64,WSW,257,6.0,13.0,38,0.00,,,0.00,105,WeatherCatV1.14B232,2013-03-20 20:17:00,
2013-03-20 16:22:00,43.5,20.2,29.64,WSW,253,5.0,7.0,39,0.00,,,0.00,132,WeatherCatV1.14B232,2013-03-20 20:22:00,
2013-03-20 16:27:00,43.4,20.1,29.64,WNW,298,5.0,9.0,39,0.00,,,0.00,109,WeatherCatV1.14B232,2013-03-20 20:27:00,
2013-03-20 16:32:00,43.5,19.0,29.63,WNW,290,8.0,11.0,37,0.00,,,0.00,130,WeatherCatV1.14B232,2013-03-20 20:32:00,
2013-03-20 16:37:00,43.6,20.3,29.64,West,269,3.0,7.0,39,0.00,,,0.00,100,WeatherCatV1.14B232,2013-03-20 20:37:00,
2013-03-20 16:42:00,43.6,19.7,29.64,WSW,258,5.0,8.0,38,0.00,,,0.00,130,WeatherCatV1.14B232,2013-03-20 20:42:00,
2013-03-20 16:47:00,43.7,21.0,29.64,West,271,5.0,7.0,40,0.00,,,0.00,120,WeatherCatV1.14B232,2013-03-20 20:47:00,
2013-03-20 16:52:00,43.7,19.2,29.64,West,273,5.0,8.0,37,0.00,,,0.00,113,WeatherCatV1.14B232,2013-03-20 20:52:00,
2013-03-20 16:57:00,43.6,19.7,29.64,WSW,258,3.0,7.0,38,0.00,,,0.00,104,WeatherCatV1.14B232,2013-03-20 20:57:00,
2013-03-20 17:02:00,43.6,19.7,29.64,WSW,250,6.0,9.0,38,0.00,,,0.00,135,WeatherCatV1.14B232,2013-03-20 21:02:00,
2013-03-20 17:07:00,44.4,19.8,29.64,WNW,290,5.0,9.0,37,0.00,,,0.00,109,WeatherCatV1.14B232,2013-03-20 21:07:00,
2013-03-20 17:12:00,44.2,19.6,29.64,WSW,258,6.0,9.0,37,0.00,,,0.00,70,WeatherCatV1.14B232,2013-03-20 21:12:00,
2013-03-20 17:17:00,43.7,18.5,29.64,West,266,8.0,9.0,36,0.00,,,0.00,90,WeatherCatV1.14B232,2013-03-20 21:17:00,
2013-03-20 17:22:00,43.6,20.3,29.64,West,276,3.0,9.0,39,0.00,,,0.00,93,WeatherCatV1.14B232,2013-03-20 21:22:00,
2013-03-20 17:27:00,43.6,19.1,29.64,WNW,297,8.0,8.0,37,0.00,,,0.00,53,WeatherCatV1.14B232,2013-03-20 21:27:00,
2013-03-20 17:32:00,43.2,19.3,29.64,WNW,298,2.0,8.0,38,0.00,,,0.00,95,WeatherCatV1.14B232,2013-03-20 21:32:00,
2013-03-20 17:37:00,43.2,19.9,29.64,West,279,3.0,8.0,39,0.00,,,0.00,98,WeatherCatV1.14B232,2013-03-20 21:37:00,
2013-03-20 17:42:00,43.6,20.3,29.64,West,271,6.0,9.0,39,0.00,,,0.00,77,WeatherCatV1.14B232,2013-03-20 21:42:00,
2013-03-20 17:47:00,43.7,20.4,29.64,NW,316,6.0,8.0,39,0.00,,,0.00,81,WeatherCatV1.14B232,2013-03-20 21:47:00,
2013-03-20 17:52:00,43.5,19.6,29.64,West,267,4.0,7.0,38,0.00,,,0.00,46,WeatherCatV1.14B232,2013-03-20 21:52:00,
2013-03-20 17:57:00,43.1,19.2,29.64,WNW,296,4.0,9.0,38,0.00,,,0.00,40,WeatherCatV1.14B232,2013-03-20 21:57:00,
2013-03-20 18:02:00,42.8,20.2,29.64,West,262,4.0,9.0,40,0.00,,,0.00,97,WeatherCatV1.14B232,2013-03-20 22:02:00,
2013-03-20 18:07:00,42.8,19.6,29.64,WSW,254,4.0,9.0,39,0.00,,,0.00,53,WeatherCatV1.14B232,2013-03-20 22:07:00,
2013-03-20 18:12:00,42.8,20.7,29.64,NW,319,1.0,9.0,41,0.00,,,0.00,72,WeatherCatV1.14B232,2013-03-20 22:12:00,
2013-03-20 18:17:00,42.9,20.8,29.64,West,262,4.0,8.0,41,0.00,,,0.00,47,WeatherCatV1.14B232,2013-03-20 22:17:00,
2013-03-20 18:22:00,42.8,20.2,29.64,West,259,4.0,6.0,40,0.00,,,0.00,28,WeatherCatV1.14B232,2013-03-20 22:22:00,
2013-03-20 18:27:00,42.7,20.7,29.64,SW,224,6.0,6.0,41,0.00,,,0.00,33,WeatherCatV1.14B232,2013-03-20 22:27:00,
2013-03-20 18:32:00,42.6,20.0,29.64,WNW,296,6.0,10.0,40,0.00,,,0.00,37,WeatherCatV1.14B232,2013-03-20 22:32:00,
2013-03-20 18:37:00,42.6,20.0,29.64,West,280,2.0,9.0,40,0.00,,,0.00,30,WeatherCatV1.14B232,2013-03-20 22:37:00,
2013-03-20 18:42:00,42.5,19.9,29.64,WNW,292,4.0,10.0,40,0.00,,,0.00,19,WeatherCatV1.14B232,2013-03-20 22:42:00,
2013-03-20 18:47:00,42.3,19.7,29.64,West,260,3.0,4.0,40,0.00,,,0.00,12,WeatherCatV1.14B232,2013-03-20 22:47:00,
2013-03-20 18:52:00,42.1,20.1,29.64,WSW,253,1.0,3.0,41,0.00,,,0.00,9,WeatherCatV1.14B232,2013-03-20 22:52:00,
2013-03-20 18:57:00,41.9,19.9,29.64,West,267,3.0,3.0,41,0.00,,,0.00,9,WeatherCatV1.14B232,2013-03-20 22:57:00,
2013-03-20 19:02:00,42.0,19.5,29.65,WSW,257,5.0,5.0,40,0.00,,,0.00,5,WeatherCatV1.14B232,2013-03-20 23:02:00,
2013-03-20 19:07:00,42.1,20.1,29.64,West,262,2.0,4.0,41,0.00,,,0.00,0,WeatherCatV1.14B232,2013-03-20 23:07:00,
2013-03-20 19:12:00,41.9,19.9,29.64,WSW,246,2.0,4.0,41,0.00,,,0.00,0,WeatherCatV1.14B232,2013-03-20 23:12:00,
2013-03-20 19:17:00,41.8,19.8,29.64,West,259,1.0,5.0,41,0.00,,,0.00,0,WeatherCatV1.14B232,2013-03-20 23:17:00,
2013-03-20 19:22:00,41.7,19.8,29.64,WSW,239,2.0,4.0,41,0.00,,,0.00,0,WeatherCatV1.14B232,2013-03-20 23:22:00,
2013-03-20 19:27:00,41.6,20.2,29.64,WNW,288,0.0,2.0,42,0.00,,,0.00,0,WeatherCatV1.14B232,2013-03-20 23:27:00,
2013-03-20 19:32:00,41.4,20.0,29.65,West,268,0.0,2.0,42,0.00,,,0.00,0,WeatherCatV1.14B232,2013-03-20 23:32:00,
2013-03-20 19:37:00,41.2,19.9,29.64,West,265,1.0,2.0,42,0.00,,,0.00,0,WeatherCatV1.14B232,2013-03-20 23:37:00,
2013-03-20 19:42:00,41.0,19.7,29.64,West,267,0.0,1.0,42,0.00,,,0.00,0,WeatherCatV1.14B232,2013-03-20 23:42:00,
2013-03-20 19:47:00,40.8,20.1,29.64,West,264,1.0,3.0,43,0.00,,,0.00,0,WeatherCatV1.14B232,2013-03-20 23:47:00,
2013-03-20 19:52:00,40.4,20.8,29.64,WNW,282,0.0,0.0,45,0.00,,,0.00,0,WeatherCatV1.14B232,2013-03-20 23:52:00,
2013-03-20 19:57:00,39.8,21.2,29.64,WNW,282,0.0,0.0,47,0.00,,,0.00,0,WeatherCatV1.14B232,2013-03-20 23:57:00,
2013-03-20 20:02:00,39.3,20.8,29.65,WNW,282,0.0,0.0,47,0.00,,,0.00,0,WeatherCatV1.14B232,2013-03-21 00:02:00,
2013-03-20 20:07:00,38.9,20.9,29.65,WNW,282,0.0,0.0,48,0.00,,,0.00,0,WeatherCatV1.14B232,2013-03-21 00:07:00,
2013-03-20 20:12:00,38.9,20.9,29.65,WNW,282,0.0,0.0,48,0.00,,,0.00,0,WeatherCatV1.14B232,2013-03-21 00:12:00,
2013-03-20 20:17:00,38.9,20.9,29.65,WNW,282,0.0,0.0,48,0.00,,,0.00,0,WeatherCatV1.14B232,2013-03-21 00:17:00,
2013-03-20 20:22:00,38.5,20.0,29.65,WNW,282,0.0,0.0,47,0.00,,,0.00,0,WeatherCatV1.14B232,2013-03-21 00:22:00,
2013-03-20 20:27:00,38.4,20.9,29.65,WNW,282,0.0,0.0,49,0.00,,,0.00,0,WeatherCatV1.14B232,2013-03-21 00:27:00,
2013-03-20 20:32:00,37.8,21.3,29.65,WNW,282,0.0,0.0,51,0.00,,,0.00,0,WeatherCatV1.14B232,2013-03-21 00:32:00,
2013-03-20 20:37:00,37.8,19.9,29.65,WNW,282,0.0,0.0,48,0.00,,,0.00,0,WeatherCatV1.14B232,2013-03-21 00:37:00,
2013-03-20 20:42:00,37.8,19.9,29.65,WNW,282,0.0,0.0,48,0.00,,,0.00,0,WeatherCatV1.14B232,2013-03-21 00:42:00,
2013-03-20 20:47:00,37.9,20.0,29.65,WNW,282,0.0,0.0,48,0.00,,,0.00,0,WeatherCatV1.14B232,2013-03-21 00:47:00,
2013-03-20 20:52:00,37.6,20.7,29.65,WNW,282,0.0,0.0,50,0.00,,,0.00,0,WeatherCatV1.14B232,2013-03-21 00:52:00,
2013-03-20 20:57:00,37.3,20.4,29.66,WNW,282,0.0,0.0,50,0.00,,,0.00,0,WeatherCatV1.14B232,2013-03-21 00:57:00,
2013-03-20 21:02:00,37.2,20.8,29.66,WNW,282,0.0,0.0,51,0.00,,,0.00,0,WeatherCatV1.14B232,2013-03-21 01:02:00,
2013-03-20 21:07:00,37.3,20.9,29.66,WNW,282,0.0,0.0,51,0.00,,,0.00,0,WeatherCatV1.14B232,2013-03-21 01:07:00,
2013-03-20 21:12:00,37.5,20.6,29.66,WNW,282,0.0,0.0,50,0.00,,,0.00,0,WeatherCatV1.14B232,2013-03-21 01:12:00,
2013-03-20 21:17:00,37.6,20.7,29.66,WNW,282,0.0,0.0,50,0.00,,,0.00,0,WeatherCatV1.14B232,2013-03-21 01:17:00,
2013-03-20 21:22:00,37.4,20.5,29.66,WNW,282,0.0,0.0,50,0.00,,,0.00,0,WeatherCatV1.14B232,2013-03-21 01:22:00,
2013-03-20 21:27:00,37.6,20.2,29.66,WNW,282,0.0,0.0,49,0.00,,,0.00,0,WeatherCatV1.14B232,2013-03-21 01:27:00,
2013-03-20 21:32:00,37.5,21.0,29.66,WNW,282,0.0,0.0,51,0.00,,,0.00,0,WeatherCatV1.14B232,2013-03-21 01:32:00,
2013-03-20 21:37:00,37.5,21.9,29.66,WNW,282,0.0,0.0,53,0.00,,,0.00,0,WeatherCatV1.14B232,2013-03-21 01:37:00,
2013-03-20 21:42:00,37.4,21.9,29.66,North,5,0.0,1.0,53,0.00,,,0.00,0,WeatherCatV1.14B232,2013-03-21 01:42:00,
2013-03-20 21:47:00,37.8,21.3,29.66,North,5,0.0,0.0,51,0.00,,,0.00,0,WeatherCatV1.14B232,2013-03-21 01:47:00,
2013-03-20 21:52:00,37.7,23.0,29.67,North,0,0.0,0.0,55,0.00,,,0.00,0,WeatherCatV1.14B232,2013-03-21 01:52:00,
2013-03-20 21:57:00,37.6,22.0,29.66,North,0,0.0,0.0,53,0.00,,,0.00,0,WeatherCatV1.14B232,2013-03-21 01:57:00,
2013-03-20 22:02:00,37.5,21.9,29.66,North,0,0.0,0.0,53,0.00,,,0.00,0,WeatherCatV1.14B232,2013-03-21 02:02:00,
2013-03-20 22:07:00,37.3,21.3,29.66,North,0,0.0,0.0,52,0.00,,,0.00,0,WeatherCatV1.14B232,2013-03-21 02:07:00,
2013-03-20 22:12:00,37.6,21.6,29.67,North,0,0.0,0.0,52,0.00,,,0.00,0,WeatherCatV1.14B232,2013-03-21 02:12:00,
2013-03-20 22:17:00,37.9,20.9,29.67,North,0,0.0,0.0,50,0.00,,,0.00,0,WeatherCatV1.14B232,2013-03-21 02:17:00,
2013-03-20 22:22:00,37.7,22.6,29.67,North,0,0.0,0.0,54,0.00,,,0.00,0,WeatherCatV1.14B232,2013-03-21 02:22:00,
2013-03-20 22:27:00,37.7,21.7,29.67,North,0,0.0,0.0,52,0.00,,,0.00,0,WeatherCatV1.14B232,2013-03-21 02:27:00,
2013-03-20 22:32:00,37.9,21.9,29.67,North,0,0.0,0.0,52,0.00,,,0.00,0,WeatherCatV1.14B232,2013-03-21 02:32:00,
2013-03-20 22:37:00,37.8,23.1,29.67,North,0,0.0,0.0,55,0.00,,,0.00,0,WeatherCatV1.14B232,2013-03-21 02:37:00,
2013-03-20 22:42:00,37.7,23.0,29.67,North,0,0.0,0.0,55,0.00,,,0.00,0,WeatherCatV1.14B232,2013-03-21 02:42:00,
2013-03-20 22:47:00,37.7,23.0,29.67,North,0,0.0,0.0,55,0.00,,,0.00,0,WeatherCatV1.14B232,2013-03-21 02:47:00,
2013-03-20 22:52:00,37.7,22.6,29.67,North,0,0.0,0.0,54,0.00,,,0.00,0,WeatherCatV1.14B232,2013-03-21 02:52:00,
2013-03-20 22:57:00,37.8,22.7,29.67,North,0,0.0,0.0,54,0.00,,,0.00,0,WeatherCatV1.14B232,2013-03-21 02:57:00,
2013-03-20 23:02:00,37.6,24.6,29.67,North,0,0.0,0.0,59,0.00,,,0.00,0,WeatherCatV1.14B232,2013-03-21 03:02:00,
2013-03-20 23:07:00,37.7,23.9,29.68,North,0,0.0,0.0,57,0.00,,,0.00,0,WeatherCatV1.14B232,2013-03-21 03:07:00,
2013-03-20 23:12:00,37.8,24.0,29.68,North,0,0.0,0.0,57,0.00,,,0.00,0,WeatherCatV1.14B232,2013-03-21 03:12:00,
2013-03-20 23:17:00,37.6,24.6,29.68,WSW,255,0.0,0.0,59,0.00,,,0.00,0,WeatherCatV1.14B232,2013-03-21 03:17:00,
2013-03-20 23:22:00,37.4,26.0,29.68,NW,324,1.0,1.0,63,0.00,,,0.00,0,WeatherCatV1.14B232,2013-03-21 03:22:00,
2013-03-20 23:27:00,37.4,26.0,29.68,NW,315,0.0,0.0,63,0.00,,,0.00,0,WeatherCatV1.14B232,2013-03-21 03:27:00,
2013-03-20 23:32:00,37.2,25.8,29.67,NW,315,0.0,0.0,63,0.00,,,0.00,0,WeatherCatV1.14B232,2013-03-21 03:32:00,
2013-03-20 23:37:00,37.3,23.9,29.67,NNE,32,0.0,0.0,58,0.00,,,0.00,0,WeatherCatV1.14B232,2013-03-21 03:37:00,
2013-03-20 23:42:00,37.5,24.9,29.67,NNE,31,0.0,0.0,60,0.00,,,0.00,0,WeatherCatV1.14B232,2013-03-21 03:42:00,
2013-03-20 23:47:00,37.1,24.5,29.67,NNE,30,0.0,1.0,60,0.00,,,0.00,0,WeatherCatV1.14B232,2013-03-21 03:47:00,
2013-03-20 23:52:00,37.1,24.1,29.67,WNW,301,0.0,2.0,59,0.00,,,0.00,0,WeatherCatV1.14B232,2013-03-21 03:52:00,
2013-03-20 23:57:00,37.1,24.5,29.67,NW,312,0.0,0.0,60,0.00,,,0.00,0,WeatherCatV1.14B232,2013-03-21 03:57:00,